Aztec, New Mexico
Current Conditions -  °F | °C
As of 12:53 AM on Saturday 20 Dec 2014 (Local Time) from KFMN Reporting Station
Clear Clear  
Wind Chill: 17°   Ceiling: Unl
Heat Index: 24°   Visibility: 10mi
Dew Point: 22°   Wind: 6mph
Humidity: 91%   Direction: 30°NNE
Pressure: 30.2"   Gusts: NA
Location:  36.83°N, 107.99°W
Report Text: KFMN 200753Z AUTO 03005KT 10SM CLR M04/M06 A3020 RMK AO2 SLP247 T10441056
Loading
Personal Weather Stations






























Interactive Weather Map New forecast layout! Learn more

10-Day Weather Forecast

Advertisements
Track Severe Weather on mobile